createdAt,value
2018-03-16T00:00:32.550Z,60.40
2018-03-16T00:03:00.831Z,60.30
2018-03-16T00:05:29.081Z,59.90
2018-03-16T00:07:58.096Z,60.10
2018-03-16T00:10:26.339Z,60.00
2018-03-16T00:12:55.367Z,59.80
2018-03-16T00:15:23.623Z,59.80
2018-03-16T00:17:52.616Z,60.00
2018-03-16T00:20:21.632Z,60.40
2018-03-16T00:22:49.870Z,60.30
2018-03-16T00:25:18.871Z,60.20
2018-03-16T00:27:47.897Z,59.80
2018-03-16T00:30:16.175Z,59.70
2018-03-16T00:32:44.444Z,59.70
2018-03-16T00:35:12.766Z,59.70
2018-03-16T00:37:41.015Z,59.70
2018-03-16T00:40:09.290Z,59.80
2018-03-16T00:42:37.527Z,60.00
2018-03-16T00:45:06.523Z,60.00
2018-03-16T00:47:35.532Z,60.00
2018-03-16T00:50:03.757Z,60.00
2018-03-16T00:52:32.003Z,60.00
2018-03-16T00:55:00.226Z,60.00
2018-03-16T00:57:28.467Z,59.90
2018-03-16T00:59:56.723Z,59.70
2018-03-16T01:02:24.973Z,59.50
2018-03-16T01:04:53.996Z,60.10
2018-03-16T01:07:22.212Z,60.00
2018-03-16T01:09:50.467Z,59.90
2018-03-16T01:12:18.779Z,60.20
2018-03-16T01:14:47.099Z,60.10
2018-03-16T01:17:15.346Z,60.20
2018-03-16T01:19:44.334Z,60.70
2018-03-16T01:22:13.369Z,60.70
2018-03-16T01:24:41.628Z,60.60
2018-03-16T01:27:09.854Z,60.40
2018-03-16T01:29:38.092Z,61.00
2018-03-16T01:32:06.352Z,60.10
2018-03-16T01:34:35.361Z,60.00
2018-03-16T01:37:03.610Z,59.90
2018-03-16T01:39:32.639Z,59.60
2018-03-16T01:42:00.867Z,59.50
2018-03-16T01:44:29.124Z,59.20
2018-03-16T01:46:57.342Z,58.90
2018-03-16T01:49:25.570Z,58.80
2018-03-16T01:51:53.811Z,58.90
2018-03-16T01:54:22.033Z,58.90
2018-03-16T01:56:50.290Z,58.60
2018-03-16T01:59:18.632Z,58.60
2018-03-16T02:01:46.851Z,58.60
2018-03-16T02:04:15.083Z,58.50
2018-03-16T02:06:43.326Z,58.00
2018-03-16T02:09:11.556Z,58.10
2018-03-16T02:11:39.817Z,58.40
2018-03-16T02:14:08.061Z,58.40
2018-03-16T02:16:36.272Z,58.40
2018-03-16T02:19:04.530Z,58.30
2018-03-16T02:21:33.508Z,58.20
2018-03-16T02:24:02.518Z,58.20
2018-03-16T02:26:30.744Z,58.20
2018-03-16T02:28:58.983Z,58.30
2018-03-16T02:31:27.220Z,58.30
2018-03-16T02:33:55.460Z,58.10
2018-03-16T02:36:23.706Z,57.70
2018-03-16T02:38:51.940Z,57.80
2018-03-16T02:41:20.261Z,57.90
2018-03-16T02:43:48.495Z,57.90
2018-03-16T02:46:16.742Z,57.30
2018-03-16T02:48:45.056Z,57.20
2018-03-16T02:51:13.285Z,57.20
2018-03-16T02:53:41.537Z,57.50
2018-03-16T02:56:09.773Z,57.30
2018-03-16T02:58:38.059Z,57.20
2018-03-16T03:01:06.275Z,57.30
2018-03-16T03:03:34.494Z,57.50
2018-03-16T03:06:02.823Z,57.30
2018-03-16T03:08:31.112Z,57.10
2018-03-16T03:10:59.358Z,57.20
2018-03-16T03:13:28.374Z,57.20
2018-03-16T03:15:56.644Z,57.20
2018-03-16T03:18:24.861Z,57.50
2018-03-16T03:20:53.096Z,57.30
2018-03-16T03:23:21.345Z,57.50
2018-03-16T03:25:50.356Z,57.70
2018-03-16T03:28:19.369Z,57.70
2018-03-16T03:30:47.595Z,57.60
2018-03-16T03:33:15.830Z,57.60
2018-03-16T03:35:44.087Z,57.60
2018-03-16T03:38:12.340Z,57.30
2018-03-16T03:40:40.566Z,57.40
2018-03-16T03:43:08.797Z,57.30
2018-03-16T03:45:37.891Z,57.60
2018-03-16T03:48:06.885Z,57.80
2018-03-16T03:50:35.898Z,57.60
2018-03-16T03:53:04.184Z,57.60
2018-03-16T03:55:32.412Z,57.90
2018-03-16T03:58:00.648Z,57.90
2018-03-16T04:00:28.868Z,57.90
2018-03-16T04:02:57.192Z,57.80
2018-03-16T04:05:25.406Z,58.00
2018-03-16T04:07:53.654Z,57.70
2018-03-16T04:10:21.898Z,58.10
2018-03-16T04:12:50.125Z,58.10
2018-03-16T04:15:18.378Z,58.10
2018-03-16T04:17:46.630Z,58.00
2018-03-16T04:20:14.871Z,58.00
2018-03-16T04:22:43.103Z,58.10
2018-03-16T04:25:11.349Z,58.00
2018-03-16T04:27:40.344Z,57.90
2018-03-16T04:30:08.599Z,57.80
2018-03-16T04:32:36.829Z,58.10
2018-03-16T04:35:05.071Z,58.30
2018-03-16T04:37:33.390Z,58.10
2018-03-16T04:40:01.604Z,58.00
2018-03-16T04:42:29.869Z,58.10
2018-03-16T04:44:58.083Z,58.10
2018-03-16T04:47:26.321Z,58.50
2018-03-16T04:49:54.545Z,58.50
2018-03-16T04:52:22.787Z,58.30
2018-03-16T04:54:51.103Z,58.40
2018-03-16T04:57:19.354Z,58.40
2018-03-16T04:59:48.353Z,58.30
2018-03-16T05:02:16.639Z,58.30
2018-03-16T05:04:44.863Z,58.00
2018-03-16T05:07:13.098Z,58.10
2018-03-16T05:09:41.313Z,57.90
2018-03-16T05:12:09.566Z,58.10
2018-03-16T05:14:37.820Z,58.70
2018-03-16T05:17:06.102Z,58.90
2018-03-16T05:19:34.346Z,58.70
2018-03-16T05:22:03.381Z,58.10
2018-03-16T05:24:31.638Z,58.10
2018-03-16T05:26:59.872Z,58.10
2018-03-16T05:29:28.127Z,58.20
2018-03-16T05:31:56.350Z,58.40
2018-03-16T05:34:25.359Z,58.50
2018-03-16T05:36:53.610Z,58.40
2018-03-16T05:39:22.597Z,58.60
2018-03-16T05:41:50.859Z,59.00
2018-03-16T05:44:19.074Z,58.80
2018-03-16T05:46:47.314Z,58.70
2018-03-16T05:49:15.641Z,58.60
2018-03-16T05:51:43.882Z,58.50
2018-03-16T05:54:12.154Z,58.50
2018-03-16T05:56:40.447Z,58.20
2018-03-16T05:59:08.650Z,58.00
2018-03-16T06:01:36.893Z,57.90
2018-03-16T06:04:05.897Z,57.70
2018-03-16T06:06:35.008Z,57.20
2018-03-16T06:09:03.234Z,57.20
2018-03-16T06:11:31.512Z,57.30
2018-03-16T06:13:59.699Z,57.70
2018-03-16T06:16:28.806Z,57.80
2018-03-16T06:18:56.999Z,57.70
2018-03-16T06:21:25.247Z,57.70
2018-03-16T06:23:53.476Z,57.60
2018-03-16T06:26:21.730Z,57.60
2018-03-16T06:28:49.991Z,57.80
2018-03-16T06:31:18.975Z,56.60
2018-03-16T06:33:47.997Z,56.90
2018-03-16T06:36:16.275Z,56.70
2018-03-16T06:38:44.486Z,57.20
2018-03-16T06:41:12.727Z,57.60
2018-03-16T06:43:40.955Z,57.70
2018-03-16T06:46:09.201Z,57.20
2018-03-16T06:48:37.480Z,56.90
2018-03-16T06:51:05.704Z,56.80
2018-03-16T06:53:34.693Z,56.70
2018-03-16T06:56:03.693Z,56.40
2018-03-16T06:58:32.682Z,56.30
2018-03-16T07:01:01.685Z,55.70
2018-03-16T07:03:30.667Z,55.10
2018-03-16T07:05:58.939Z,55.10
2018-03-16T07:08:27.166Z,55.70
2018-03-16T07:10:56.225Z,55.50
2018-03-16T07:13:25.211Z,55.70
2018-03-16T07:15:54.242Z,56.30
2018-03-16T07:18:22.512Z,55.80
2018-03-16T07:20:50.753Z,56.00
2018-03-16T07:23:18.992Z,55.70
2018-03-16T07:25:47.347Z,55.30
2018-03-16T07:28:15.575Z,54.90
2018-03-16T07:30:43.805Z,54.80
2018-03-16T07:33:12.067Z,54.70
2018-03-16T07:35:40.343Z,54.80
2018-03-16T07:38:08.622Z,55.20
2018-03-16T07:40:36.931Z,55.50
2018-03-16T07:43:05.174Z,55.80
2018-03-16T07:45:39.126Z,55.60
2018-03-16T07:48:07.373Z,55.90
2018-03-16T07:50:35.657Z,55.20
2018-03-16T07:53:03.878Z,54.80
2018-03-16T07:55:32.224Z,54.90
2018-03-16T07:58:00.570Z,55.40
2018-03-16T08:00:28.861Z,54.80
2018-03-16T08:02:57.069Z,55.00
2018-03-16T08:05:25.325Z,55.30
2018-03-16T08:07:53.579Z,55.40
2018-03-16T08:10:21.810Z,55.30
2018-03-16T08:12:50.049Z,54.90
2018-03-16T08:15:18.328Z,54.80
2018-03-16T08:17:46.540Z,54.90
2018-03-16T08:20:14.788Z,54.70
2018-03-16T08:22:43.076Z,54.40
2018-03-16T08:25:11.327Z,54.00
2018-03-16T08:27:39.552Z,54.20
2018-03-16T08:30:07.958Z,54.50
2018-03-16T08:32:36.248Z,55.00
2018-03-16T08:35:04.492Z,54.80
2018-03-16T08:37:33.472Z,54.60
2018-03-16T08:40:01.751Z,54.60
2018-03-16T08:42:29.996Z,54.50
2018-03-16T08:44:58.406Z,54.40
2018-03-16T08:47:26.665Z,53.70
2018-03-16T08:49:54.879Z,53.90
2018-03-16T08:52:23.924Z,54.70
2018-03-16T08:54:52.161Z,54.60
2018-03-16T08:57:21.136Z,54.30
2018-03-16T08:59:49.366Z,54.20
2018-03-16T09:02:17.584Z,54.30
2018-03-16T09:04:46.581Z,53.30
2018-03-16T09:07:15.598Z,53.90
2018-03-16T09:09:43.836Z,53.80
2018-03-16T09:12:12.843Z,54.00
2018-03-16T09:14:41.864Z,54.40
2018-03-16T09:17:10.092Z,54.30
2018-03-16T09:19:38.325Z,54.40
2018-03-16T09:22:06.571Z,54.60
2018-03-16T09:24:35.571Z,53.90
2018-03-16T09:27:03.795Z,53.80
2018-03-16T09:29:32.021Z,53.90
2018-03-16T09:32:00.306Z,54.00
2018-03-16T09:34:28.550Z,53.50
2018-03-16T09:36:56.831Z,53.70
2018-03-16T09:39:25.068Z,53.40
2018-03-16T09:41:53.316Z,53.50
2018-03-16T09:44:21.554Z,53.50
2018-03-16T09:46:49.784Z,53.00
2018-03-16T09:49:18.037Z,52.60
2018-03-16T09:51:46.260Z,53.20
2018-03-16T09:54:14.496Z,53.30
2018-03-16T09:56:42.746Z,53.50
2018-03-16T09:59:11.779Z,54.00
2018-03-16T10:01:40.029Z,54.00
2018-03-16T10:04:09.031Z,54.00
2018-03-16T10:06:37.408Z,54.00
2018-03-16T10:09:05.593Z,53.90
2018-03-16T10:11:33.827Z,53.90
2018-03-16T10:14:02.845Z,53.60
2018-03-16T10:16:31.824Z,53.10
2018-03-16T10:19:00.052Z,53.00
2018-03-16T10:21:28.289Z,53.40
2018-03-16T10:23:57.285Z,53.10
2018-03-16T10:26:25.535Z,53.00
2018-03-16T10:28:53.758Z,53.70
2018-03-16T10:31:22.002Z,53.60
2018-03-16T10:33:50.984Z,53.10
2018-03-16T10:36:19.227Z,53.00
2018-03-16T10:38:47.486Z,52.90
2018-03-16T10:41:15.732Z,52.80
2018-03-16T10:43:44.723Z,54.20
2018-03-16T10:46:13.727Z,54.30
2018-03-16T10:48:42.014Z,54.30
2018-03-16T10:51:10.250Z,54.30
2018-03-16T10:53:38.468Z,54.20
2018-03-16T10:56:06.718Z,54.30
2018-03-16T10:58:35.710Z,53.70
2018-03-16T11:01:10.532Z,53.60
2018-03-16T11:03:45.417Z,53.90
2018-03-16T11:09:21.862Z,54.40
2018-03-16T11:11:50.017Z,54.30
2018-03-16T11:14:18.269Z,54.80
2018-03-16T11:16:46.513Z,54.50
2018-03-16T11:19:14.762Z,54.30
2018-03-16T11:21:43.758Z,53.50
2018-03-16T11:24:12.774Z,53.20
2018-03-16T11:26:40.995Z,53.10
2018-03-16T11:29:09.297Z,53.00
2018-03-16T11:31:37.486Z,53.00
2018-03-16T11:34:05.737Z,53.20
2018-03-16T11:36:34.744Z,53.60
2018-03-16T11:39:03.764Z,53.30
2018-03-16T11:41:31.990Z,53.20
2018-03-16T11:44:00.250Z,53.30
2018-03-16T11:46:28.448Z,53.40
2018-03-16T11:48:56.692Z,53.20
2018-03-16T11:51:24.928Z,53.80
2018-03-16T11:53:53.944Z,53.50
2018-03-16T11:56:22.145Z,53.50
2018-03-16T11:58:50.369Z,53.20
2018-03-16T12:01:19.383Z,53.00
2018-03-16T12:03:47.655Z,53.00
2018-03-16T12:06:15.906Z,52.80
2018-03-16T12:08:45.018Z,53.10
2018-03-16T12:11:13.272Z,53.10
2018-03-16T12:13:42.287Z,53.80
2018-03-16T12:16:10.566Z,53.70
2018-03-16T12:18:38.782Z,53.90
2018-03-16T12:21:07.037Z,54.90
2018-03-16T12:23:35.265Z,54.60
2018-03-16T12:26:03.512Z,54.50
2018-03-16T12:28:49.374Z,54.80
2018-03-16T12:31:00.753Z,55.30
2018-03-16T12:33:29.007Z,54.60
2018-03-16T12:35:57.227Z,55.40
2018-03-16T12:38:25.460Z,55.00
2018-03-16T12:40:53.678Z,54.50
2018-03-16T12:43:21.926Z,54.30
2018-03-16T12:45:50.145Z,53.90
2018-03-16T12:48:18.409Z,54.10
2018-03-16T12:50:46.622Z,54.30
2018-03-16T12:53:15.604Z,54.90
2018-03-16T12:55:43.819Z,54.80
2018-03-16T12:58:12.063Z,55.20
2018-03-16T13:00:41.054Z,54.70
2018-03-16T13:03:09.327Z,54.50
2018-03-16T13:05:37.550Z,55.00
2018-03-16T13:08:05.774Z,53.60
2018-03-16T13:10:33.987Z,53.80
2018-03-16T13:13:02.224Z,54.30
2018-03-16T13:15:30.454Z,54.20
2018-03-16T13:17:58.700Z,53.70
2018-03-16T13:20:27.682Z,53.20
2018-03-16T13:22:56.706Z,53.30
2018-03-16T13:25:24.928Z,53.30
2018-03-16T13:27:53.189Z,53.00
2018-03-16T13:30:21.445Z,53.00
2018-03-16T13:32:49.691Z,52.80
2018-03-16T13:35:18.674Z,53.30
2018-03-16T13:37:47.659Z,52.70
2018-03-16T13:40:16.003Z,52.60
2018-03-16T13:42:44.240Z,52.60
2018-03-16T13:45:13.237Z,53.20
2018-03-16T13:47:42.244Z,53.10
2018-03-16T13:50:10.508Z,53.00
2018-03-16T13:52:38.729Z,52.70
2018-03-16T13:55:06.979Z,52.90
2018-03-16T13:57:35.221Z,53.10
2018-03-16T14:00:04.240Z,52.90
2018-03-16T14:02:32.517Z,52.80
2018-03-16T14:05:00.690Z,52.60
2018-03-16T14:07:28.936Z,52.70
2018-03-16T14:09:57.951Z,52.70
2018-03-16T14:12:26.164Z,52.20
2018-03-16T14:14:54.422Z,52.40
2018-03-16T14:17:22.631Z,52.70
2018-03-16T14:19:50.863Z,52.70
2018-03-16T14:22:19.119Z,52.50
2018-03-16T14:24:47.406Z,52.50
2018-03-16T14:27:16.386Z,52.90
2018-03-16T14:29:45.382Z,53.00
2018-03-16T14:32:14.459Z,53.20
2018-03-16T14:34:42.635Z,53.20
2018-03-16T14:37:10.880Z,52.80
2018-03-16T14:39:39.188Z,53.20
2018-03-16T14:42:07.389Z,52.40
2018-03-16T14:44:36.365Z,52.60
2018-03-16T14:47:04.615Z,52.60
2018-03-16T14:49:32.894Z,53.80
2018-03-16T14:52:01.061Z,53.50
2018-03-16T14:54:29.294Z,53.00
2018-03-16T14:56:57.502Z,53.00
2018-03-16T14:59:25.731Z,52.80
2018-03-16T15:01:54.720Z,52.90
2018-03-16T15:04:23.714Z,52.20
2018-03-16T15:06:52.694Z,52.30
2018-03-16T15:09:21.703Z,53.10
2018-03-16T15:11:50.701Z,52.00
2018-03-16T15:14:19.719Z,52.20
2018-03-16T15:16:47.924Z,52.10
2018-03-16T15:19:16.162Z,51.20
2018-03-16T15:21:44.452Z,51.10
2018-03-16T15:24:12.626Z,50.50
2018-03-16T15:26:40.828Z,50.90
2018-03-16T15:29:09.068Z,51.30
2018-03-16T15:31:37.290Z,50.10
2018-03-16T15:34:05.508Z,49.00
2018-03-16T15:36:33.756Z,49.50
2018-03-16T15:39:01.990Z,49.00
2018-03-16T15:41:30.228Z,49.40
2018-03-16T15:43:58.443Z,48.70
2018-03-16T15:46:26.677Z,48.90
2018-03-16T15:48:54.936Z,48.20
2018-03-16T15:51:23.949Z,48.50
2018-03-16T15:53:52.948Z,48.40
2018-03-16T15:56:21.179Z,48.30
2018-03-16T15:58:49.508Z,48.20
2018-03-16T16:01:17.728Z,47.90
2018-03-16T16:03:45.982Z,47.60
2018-03-16T16:06:14.190Z,47.60
2018-03-16T16:08:42.426Z,47.90
2018-03-16T16:11:10.703Z,48.30
2018-03-16T16:13:39.677Z,47.90
2018-03-16T16:16:07.895Z,47.80
2018-03-16T16:18:36.142Z,47.90
2018-03-16T16:21:04.379Z,48.10
2018-03-16T16:23:32.624Z,48.20
2018-03-16T16:26:00.841Z,48.40
2018-03-16T16:28:29.102Z,48.10
2018-03-16T16:30:57.467Z,48.30
2018-03-16T16:33:25.707Z,48.10
2018-03-16T16:35:53.936Z,48.00
2018-03-16T16:38:22.918Z,48.60
2018-03-16T16:40:51.151Z,48.50
2018-03-16T16:43:19.391Z,48.50
2018-03-16T16:45:48.393Z,48.50
2018-03-16T16:48:16.607Z,48.50
2018-03-16T16:50:44.878Z,47.90
2018-03-16T16:53:13.229Z,47.80
2018-03-16T16:55:41.475Z,47.80
2018-03-16T16:58:09.734Z,48.00
2018-03-16T17:00:37.911Z,48.50
2018-03-16T17:03:06.150Z,47.60
2018-03-16T17:05:34.371Z,47.50
2018-03-16T17:08:02.609Z,47.30
2018-03-16T17:10:30.844Z,48.00
2018-03-16T17:12:59.075Z,47.30
2018-03-16T17:15:27.320Z,47.40
2018-03-16T17:17:55.534Z,46.80
2018-03-16T17:20:23.767Z,46.50
2018-03-16T17:22:52.161Z,45.90
2018-03-16T17:25:20.422Z,46.00
2018-03-16T17:27:48.665Z,46.20
2018-03-16T17:30:16.884Z,46.00
2018-03-16T17:32:45.122Z,46.00
2018-03-16T17:35:13.429Z,46.40
2018-03-16T17:37:41.662Z,46.70
2018-03-16T17:40:09.890Z,46.70
2018-03-16T17:42:38.152Z,46.40
2018-03-16T17:45:06.366Z,46.60
2018-03-16T17:47:34.602Z,46.00
2018-03-16T17:50:02.870Z,46.20
2018-03-16T17:52:31.942Z,46.90
2018-03-16T17:55:00.140Z,46.80
2018-03-16T17:57:28.365Z,47.10
2018-03-16T17:59:56.604Z,47.00
2018-03-16T18:02:24.822Z,47.30
2018-03-16T18:04:53.054Z,47.10
2018-03-16T18:07:21.269Z,47.50
2018-03-16T18:09:49.579Z,47.00
2018-03-16T18:12:17.796Z,47.10
2018-03-16T18:14:46.017Z,46.80
2018-03-16T18:17:14.258Z,47.00
2018-03-16T18:19:42.458Z,47.00
2018-03-16T18:22:10.675Z,46.50
2018-03-16T18:24:38.931Z,46.50
2018-03-16T18:27:07.911Z,45.90
2018-03-16T18:29:36.141Z,45.60
2018-03-16T18:32:04.346Z,45.50
2018-03-16T18:34:32.672Z,46.80
2018-03-16T18:37:00.904Z,47.00
2018-03-16T18:39:29.196Z,46.70
2018-03-16T18:41:57.390Z,46.00
2018-03-16T18:44:26.403Z,46.70
2018-03-16T18:46:54.657Z,46.60
2018-03-16T18:49:22.854Z,46.80
2018-03-16T18:51:51.076Z,46.80
2018-03-16T18:54:19.404Z,47.00
2018-03-16T18:56:47.666Z,47.00
2018-03-16T18:59:16.655Z,47.40
2018-03-16T19:01:45.670Z,47.50
2018-03-16T19:04:13.906Z,47.40
2018-03-16T19:06:42.139Z,47.70
2018-03-16T19:09:10.385Z,47.50
2018-03-16T19:11:38.598Z,46.90
2018-03-16T19:14:06.805Z,47.00
2018-03-16T19:16:35.062Z,47.30
2018-03-16T19:19:03.302Z,47.10
2018-03-16T19:21:31.530Z,46.50
2018-03-16T19:23:59.786Z,46.80
2018-03-16T19:26:28.038Z,47.00
2018-03-16T19:28:56.284Z,46.40
2018-03-16T19:31:25.260Z,46.30
2018-03-16T19:33:53.575Z,46.30
2018-03-16T19:36:21.778Z,46.00
2018-03-16T19:38:50.005Z,45.70
2018-03-16T19:41:19.002Z,45.50
2018-03-16T19:43:48.012Z,45.40
2018-03-16T19:46:16.285Z,45.30
2018-03-16T19:48:44.570Z,46.00
2018-03-16T19:51:12.718Z,46.00
2018-03-16T19:53:41.796Z,45.40
2018-03-16T19:56:09.999Z,45.30
2018-03-16T19:58:38.226Z,44.80
2018-03-16T20:01:06.463Z,44.50
2018-03-16T20:03:37.803Z,44.50
2018-03-16T20:06:06.786Z,43.90
2018-03-16T20:08:35.791Z,43.70
2018-03-16T20:11:04.785Z,43.50
2018-03-16T20:13:33.792Z,43.80
2018-03-16T20:16:02.023Z,43.80
2018-03-16T20:18:30.267Z,43.90
2018-03-16T20:20:58.496Z,43.80
2018-03-16T20:23:27.503Z,44.00
2018-03-16T20:25:56.496Z,44.00
2018-03-16T20:28:24.746Z,43.90
2018-03-16T20:30:52.952Z,44.20
2018-03-16T20:33:21.196Z,44.40
2018-03-16T20:35:49.438Z,43.80
2018-03-16T20:38:17.768Z,43.30
2018-03-16T20:40:45.950Z,43.30
2018-03-16T20:43:14.968Z,43.30
2018-03-16T20:45:43.206Z,43.20
2018-03-16T20:48:12.202Z,43.50
2018-03-16T20:50:41.317Z,43.40
2018-03-16T20:53:09.527Z,43.40
2018-03-16T20:55:37.767Z,43.30
2018-03-16T20:58:05.998Z,42.80
2018-03-16T21:00:34.248Z,42.80
2018-03-16T21:03:02.585Z,43.00
2018-03-16T21:05:31.570Z,44.00
2018-03-16T21:08:00.554Z,43.00
2018-03-16T21:10:29.602Z,42.70
2018-03-16T21:12:57.826Z,42.70
2018-03-16T21:15:26.156Z,42.00
2018-03-16T21:17:54.407Z,41.80
2018-03-16T21:20:22.650Z,41.40
2018-03-16T21:22:50.957Z,41.70
2018-03-16T21:25:19.185Z,42.00
2018-03-16T21:27:47.452Z,42.00
2018-03-16T21:30:15.712Z,41.80
2018-03-16T21:32:43.941Z,41.90
2018-03-16T21:35:12.935Z,42.30
2018-03-16T21:37:41.957Z,42.80
2018-03-16T21:40:10.162Z,42.80
2018-03-16T21:42:38.405Z,42.60
2018-03-16T21:45:06.695Z,42.50
2018-03-16T21:47:34.921Z,42.20
2018-03-16T21:50:03.142Z,42.20
2018-03-16T21:52:31.376Z,43.00
2018-03-16T21:54:59.646Z,42.10
2018-03-16T21:57:27.871Z,42.40
2018-03-16T21:59:56.081Z,42.50
2018-03-16T22:02:24.307Z,42.20
2018-03-16T22:04:52.535Z,41.90
2018-03-16T22:07:20.824Z,42.40
2018-03-16T22:09:49.051Z,42.90
2018-03-16T22:12:17.284Z,42.60
2018-03-16T22:14:45.514Z,41.90
2018-03-16T22:17:13.753Z,42.50
2018-03-16T22:19:42.746Z,41.90
2018-03-16T22:22:11.722Z,41.70
2018-03-16T22:24:40.763Z,42.00
2018-03-16T22:27:09.006Z,41.90
2018-03-16T22:29:38.009Z,41.60
2018-03-16T22:32:06.226Z,41.60
2018-03-16T22:34:34.477Z,42.10
2018-03-16T22:37:02.690Z,42.10
2018-03-16T22:39:30.898Z,42.00
2018-03-16T22:41:59.914Z,42.50
2018-03-16T22:44:28.129Z,42.30
2018-03-16T22:46:56.360Z,42.10
2018-03-16T22:49:24.565Z,41.70
2018-03-16T22:51:52.803Z,41.10
2018-03-16T22:54:21.028Z,41.70
2018-03-16T22:56:49.275Z,41.90
2018-03-16T22:59:17.531Z,41.60
2018-03-16T23:01:45.770Z,42.10
2018-03-16T23:04:13.973Z,42.00
2018-03-16T23:06:42.985Z,41.40
2018-03-16T23:09:11.193Z,41.40
2018-03-16T23:11:39.427Z,41.90
2018-03-16T23:14:07.650Z,42.00
2018-03-16T23:16:35.892Z,41.90
2018-03-16T23:19:04.114Z,41.80
2018-03-16T23:21:32.325Z,42.10
2018-03-16T23:24:01.331Z,42.20
2018-03-16T23:26:29.562Z,42.20
2018-03-16T23:28:59.315Z,40.90
2018-03-16T23:31:27.535Z,40.90
2018-03-16T23:33:55.779Z,40.50
2018-03-16T23:36:24.004Z,40.10
2018-03-16T23:38:52.245Z,40.30
2018-03-16T23:41:20.454Z,40.40
2018-03-16T23:43:50.196Z,40.40
2018-03-16T23:46:18.413Z,40.40
2018-03-16T23:48:46.651Z,40.20
2018-03-16T23:51:14.944Z,39.90
2018-03-16T23:53:43.158Z,40.00
2018-03-16T23:56:11.374Z,40.20
2018-03-16T23:58:40.811Z,40.00
